sensor_id;sensor_type;location;lat;lon;timestamp;pressure;altitude;pressure_sealevel;temperature;humidity
53889;BME280;41337;51.400;-2.342;2022-08-21T00:03:36;101150.97;;;16.33;100.00
53889;BME280;41337;51.400;-2.342;2022-08-21T00:08:37;101153.63;;;16.31;100.00
53889;BME280;41337;51.400;-2.342;2022-08-21T00:13:38;101153.81;;;16.19;100.00
53889;BME280;41337;51.400;-2.342;2022-08-21T00:18:39;101155.69;;;16.11;100.00
53889;BME280;41337;51.400;-2.342;2022-08-21T00:23:40;101156.72;;;16.01;100.00
53889;BME280;41337;51.400;-2.342;2022-08-21T00:28:42;101161.22;;;15.94;100.00
53889;BME280;41337;51.400;-2.342;2022-08-21T00:33:46;101154.22;;;15.91;100.00
53889;BME280;41337;51.400;-2.342;2022-08-21T00:38:46;101142.84;;;15.92;100.00
53889;BME280;41337;51.400;-2.342;2022-08-21T00:43:47;101135.72;;;15.99;100.00
53889;BME280;41337;51.400;-2.342;2022-08-21T00:48:48;101133.03;;;16.04;100.00
53889;BME280;41337;51.400;-2.342;2022-08-21T00:53:50;101142.63;;;16.06;100.00
53889;BME280;41337;51.400;-2.342;2022-08-21T00:58:52;101136.66;;;15.93;100.00
53889;BME280;41337;51.400;-2.342;2022-08-21T01:03:58;101138.50;;;15.88;100.00
53889;BME280;41337;51.400;-2.342;2022-08-21T01:08:59;101140.31;;;15.85;100.00
53889;BME280;41337;51.400;-2.342;2022-08-21T01:14:00;101138.69;;;15.76;100.00
53889;BME280;41337;51.400;-2.342;2022-08-21T01:19:01;101134.28;;;15.78;100.00
53889;BME280;41337;51.400;-2.342;2022-08-21T01:24:02;101138.66;;;15.79;100.00
53889;BME280;41337;51.400;-2.342;2022-08-21T01:34:10;101134.28;;;15.78;100.00
53889;BME280;41337;51.400;-2.342;2022-08-21T01:39:11;101130.81;;;15.76;100.00
53889;BME280;41337;51.400;-2.342;2022-08-21T01:44:12;101129.03;;;15.76;100.00
53889;BME280;41337;51.400;-2.342;2022-08-21T01:49:13;101131.66;;;15.75;100.00
53889;BME280;41337;51.400;-2.342;2022-08-21T01:54:14;101119.38;;;15.75;100.00
53889;BME280;41337;51.400;-2.342;2022-08-21T01:59:14;101119.44;;;15.71;100.00
53889;BME280;41337;51.400;-2.342;2022-08-21T02:04:15;101124.69;;;15.72;100.00
53889;BME280;41337;51.400;-2.342;2022-08-21T02:09:17;101119.50;;;15.68;100.00
53889;BME280;41337;51.400;-2.342;2022-08-21T02:14:21;101109.09;;;15.62;100.00
53889;BME280;41337;51.400;-2.342;2022-08-21T02:19:21;101106.50;;;15.58;100.00
53889;BME280;41337;51.400;-2.342;2022-08-21T02:24:22;101115.38;;;15.51;100.00
53889;BME280;41337;51.400;-2.342;2022-08-21T02:29:23;101111.13;;;15.38;100.00
53889;BME280;41337;51.400;-2.342;2022-08-21T02:34:24;101112.09;;;15.32;100.00
53889;BME280;41337;51.400;-2.342;2022-08-21T02:39:25;101104.41;;;15.17;100.00
53889;BME280;41337;51.400;-2.342;2022-08-21T02:44:25;101107.16;;;15.06;100.00
53889;BME280;41337;51.400;-2.342;2022-08-21T02:49:26;101112.44;;;15.04;100.00
53889;BME280;41337;51.400;-2.342;2022-08-21T02:54:27;101103.72;;;15.01;100.00
53889;BME280;41337;51.400;-2.342;2022-08-21T02:59:27;101101.91;;;15.06;100.00
53889;BME280;41337;51.400;-2.342;2022-08-21T03:04:28;101093.97;;;15.12;100.00
53889;BME280;41337;51.400;-2.342;2022-08-21T03:09:29;101086.06;;;15.15;100.00
53889;BME280;41337;51.400;-2.342;2022-08-21T03:14:29;101077.25;;;15.19;100.00
53889;BME280;41337;51.400;-2.342;2022-08-21T03:19:30;101074.56;;;15.24;100.00
53889;BME280;41337;51.400;-2.342;2022-08-21T03:24:31;101070.06;;;15.34;100.00
53889;BME280;41337;51.400;-2.342;2022-08-21T03:29:32;101066.59;;;15.32;100.00
53889;BME280;41337;51.400;-2.342;2022-08-21T03:34:32;101067.41;;;15.37;100.00
53889;BME280;41337;51.400;-2.342;2022-08-21T03:39:33;101069.16;;;15.35;100.00
53889;BME280;41337;51.400;-2.342;2022-08-21T03:44:34;101080.50;;;15.40;100.00
53889;BME280;41337;51.400;-2.342;2022-08-21T03:49:35;101076.97;;;15.41;100.00
53889;BME280;41337;51.400;-2.342;2022-08-21T03:54:45;101076.94;;;15.44;100.00
53889;BME280;41337;51.400;-2.342;2022-08-21T03:59:52;101075.13;;;15.46;100.00
53889;BME280;41337;51.400;-2.342;2022-08-21T04:04:54;101070.81;;;15.45;100.00
53889;BME280;41337;51.400;-2.342;2022-08-21T04:09:54;101076.88;;;15.47;100.00
53889;BME280;41337;51.400;-2.342;2022-08-21T04:14:55;101074.25;;;15.47;100.00
53889;BME280;41337;51.400;-2.342;2022-08-21T04:19:56;101076.88;;;15.47;100.00
53889;BME280;41337;51.400;-2.342;2022-08-21T04:24:57;101079.50;;;15.47;100.00
53889;BME280;41337;51.400;-2.342;2022-08-21T04:29:58;101090.84;;;15.49;100.00
53889;BME280;41337;51.400;-2.342;2022-08-21T04:34:59;101087.34;;;15.50;100.00
53889;BME280;41337;51.400;-2.342;2022-08-21T04:40:03;101096.09;;;15.51;100.00
53889;BME280;41337;51.400;-2.342;2022-08-21T04:45:04;101103.94;;;15.52;100.00
53889;BME280;41337;51.400;-2.342;2022-08-21T04:50:05;101100.44;;;15.53;100.00
53889;BME280;41337;51.400;-2.342;2022-08-21T04:55:06;101106.66;;;15.46;100.00
53889;BME280;41337;51.400;-2.342;2022-08-21T05:00:08;101129.28;;;15.56;100.00
53889;BME280;41337;51.400;-2.342;2022-08-21T05:05:11;101142.38;;;15.59;100.00
53889;BME280;41337;51.400;-2.342;2022-08-21T05:10:20;101135.34;;;15.62;100.00
53889;BME280;41337;51.400;-2.342;2022-08-21T05:15:22;101128.41;;;15.56;100.00
53889;BME280;41337;51.400;-2.342;2022-08-21T05:20:26;101105.69;;;15.53;100.00
53889;BME280;41337;51.400;-2.342;2022-08-21T05:25:27;101118.03;;;15.48;100.00
53889;BME280;41337;51.400;-2.342;2022-08-21T05:30:28;101097.94;;;15.44;100.00
53889;BME280;41337;51.400;-2.342;2022-08-21T05:35:29;101090.84;;;15.49;100.00
53889;BME280;41337;51.400;-2.342;2022-08-21T05:40:33;101096.03;;;15.55;100.00
53889;BME280;41337;51.400;-2.342;2022-08-21T05:45:37;101095.06;;;15.61;100.00
53889;BME280;41337;51.400;-2.342;2022-08-21T05:50:38;101113.34;;;15.69;100.00
53889;BME280;41337;51.400;-2.342;2022-08-21T05:55:39;101115.00;;;15.79;100.00
53889;BME280;41337;51.400;-2.342;2022-08-21T06:00:40;101121.97;;;15.80;100.00
53889;BME280;41337;51.400;-2.342;2022-08-21T06:05:41;101121.09;;;15.81;100.00
53889;BME280;41337;51.400;-2.342;2022-08-21T06:10:42;101110.56;;;15.84;100.00
53889;BME280;41337;51.400;-2.342;2022-08-21T06:15:43;101108.69;;;15.91;100.00
53889;BME280;41337;51.400;-2.342;2022-08-21T06:20:44;101112.13;;;15.96;100.00
53889;BME280;41337;51.400;-2.342;2022-08-21T06:25:45;101104.22;;;15.98;100.00
53889;BME280;41337;51.400;-2.342;2022-08-21T06:30:46;101099.78;;;16.01;100.00
53889;BME280;41337;51.400;-2.342;2022-08-21T06:35:50;101097.97;;;16.03;100.00
53889;BME280;41337;51.400;-2.342;2022-08-21T06:40:51;101087.38;;;16.09;100.00
53889;BME280;41337;51.400;-2.342;2022-08-21T06:45:51;101095.97;;;16.21;100.00
53889;BME280;41337;51.400;-2.342;2022-08-21T06:50:52;101079.06;;;16.36;100.00
53889;BME280;41337;51.400;-2.342;2022-08-21T06:55:53;101082.31;;;16.50;100.00
53889;BME280;41337;51.400;-2.342;2022-08-21T07:00:54;101072.41;;;16.64;100.00
53889;BME280;41337;51.400;-2.342;2022-08-21T07:05:55;101085.28;;;16.78;100.00
53889;BME280;41337;51.400;-2.342;2022-08-21T07:10:58;101095.59;;;16.92;100.00
53889;BME280;41337;51.400;-2.342;2022-08-21T07:15:59;101090.84;;;17.10;100.00
53889;BME280;41337;51.400;-2.342;2022-08-21T07:21:03;101080.72;;;17.33;100.00
53889;BME280;41337;51.400;-2.342;2022-08-21T07:26:06;101102.09;;;17.58;100.00
53889;BME280;41337;51.400;-2.342;2022-08-21T07:31:08;101100.94;;;17.70;100.00
53889;BME280;41337;51.400;-2.342;2022-08-21T07:36:10;101112.09;;;17.82;100.00
53889;BME280;41337;51.400;-2.342;2022-08-21T07:41:15;101127.81;;;17.88;100.00
53889;BME280;41337;51.400;-2.342;2022-08-21T07:46:17;101147.94;;;17.92;100.00
53889;BME280;41337;51.400;-2.342;2022-08-21T07:51:18;101147.94;;;17.92;100.00
53889;BME280;41337;51.400;-2.342;2022-08-21T07:56:19;101157.41;;;18.01;100.00
53889;BME280;41337;51.400;-2.342;2022-08-21T08:01:20;101159.09;;;18.05;100.00
53889;BME280;41337;51.400;-2.342;2022-08-21T08:06:27;101166.09;;;18.04;100.00
53889;BME280;41337;51.400;-2.342;2022-08-21T08:11:27;101182.06;;;17.98;100.00
53889;BME280;41337;51.400;-2.342;2022-08-21T08:16:28;101191.53;;;17.66;100.00
53889;BME280;41337;51.400;-2.342;2022-08-21T08:21:29;101206.50;;;17.64;100.00
53889;BME280;41337;51.400;-2.342;2022-08-21T08:26:30;101205.06;;;17.49;100.00
53889;BME280;41337;51.400;-2.342;2022-08-21T08:31:31;101196.44;;;17.41;100.00
53889;BME280;41337;51.400;-2.342;2022-08-21T08:36:33;101183.22;;;17.42;100.00
53889;BME280;41337;51.400;-2.342;2022-08-21T08:41:38;101189.25;;;17.49;100.00
53889;BME280;41337;51.400;-2.342;2022-08-21T08:46:49;101188.94;;;17.63;100.00
53889;BME280;41337;51.400;-2.342;2022-08-21T08:51:55;101177.31;;;17.73;100.00
53889;BME280;41337;51.400;-2.342;2022-08-21T08:56:58;101172.91;;;17.74;100.00
53889;BME280;41337;51.400;-2.342;2022-08-21T09:01:59;101149.72;;;17.90;100.00
53889;BME280;41337;51.400;-2.342;2022-08-21T09:12:14;101149.56;;;18.35;100.00
53889;BME280;41337;51.400;-2.342;2022-08-21T09:22:39;101144.72;;;18.52;100.00
53889;BME280;41337;51.400;-2.342;2022-08-21T09:27:44;101147.53;;;18.79;100.00
53889;BME280;41337;51.400;-2.342;2022-08-21T09:32:45;101141.38;;;19.13;100.00
53889;BME280;41337;51.400;-2.342;2022-08-21T09:43:22;101153.19;;;19.61;100.00
53889;BME280;41337;51.400;-2.342;2022-08-21T09:48:25;101161.72;;;20.01;100.00
53889;BME280;41337;51.400;-2.342;2022-08-21T09:53:26;101159.22;;;20.24;100.00
53889;BME280;41337;51.400;-2.342;2022-08-21T09:58:33;101152.66;;;20.61;100.00
53889;BME280;41337;51.400;-2.342;2022-08-21T10:03:34;101150.63;;;20.96;100.00
53889;BME280;41337;51.400;-2.342;2022-08-21T10:08:36;101144.50;;;21.19;98.13
53889;BME280;41337;51.400;-2.342;2022-08-21T10:18:47;101133.34;;;22.25;86.72
53889;BME280;41337;51.400;-2.342;2022-08-21T10:34:41;101128.25;;;23.80;67.34
53889;BME280;41337;51.400;-2.342;2022-08-21T10:55:12;101115.63;;;25.07;57.39
53889;BME280;41337;51.400;-2.342;2022-08-21T11:00:19;101115.72;;;25.71;51.65
53889;BME280;41337;51.400;-2.342;2022-08-21T11:16:41;101137.25;;;26.77;47.74
53889;BME280;41337;51.400;-2.342;2022-08-21T11:21:43;101136.13;;;27.24;43.74
53889;BME280;41337;51.400;-2.342;2022-08-21T11:26:53;101135.50;;;26.76;42.34
53889;BME280;41337;51.400;-2.342;2022-08-21T11:32:23;101137.91;;;26.19;42.61
53889;BME280;41337;51.400;-2.342;2022-08-21T11:43:00;101127.78;;;25.62;43.67
53889;BME280;41337;51.400;-2.342;2022-08-21T11:48:15;101128.72;;;25.77;45.25
53889;BME280;41337;51.400;-2.342;2022-08-21T11:53:24;101126.22;;;25.09;47.13
53889;BME280;41337;51.400;-2.342;2022-08-21T11:58:39;101120.72;;;25.45;48.38
53889;BME280;41337;51.400;-2.342;2022-08-21T12:03:42;101113.63;;;25.92;47.99
53889;BME280;41337;51.400;-2.342;2022-08-21T12:09:01;101114.91;;;26.47;44.36
53889;BME280;41337;51.400;-2.342;2022-08-21T12:24:32;101116.84;;;25.99;44.70
53889;BME280;41337;51.400;-2.342;2022-08-21T12:29:35;101122.44;;;25.78;47.52
53889;BME280;41337;51.400;-2.342;2022-08-21T12:34:38;101118.47;;;25.86;46.25
53889;BME280;41337;51.400;-2.342;2022-08-21T12:39:42;101113.41;;;25.97;49.29
53889;BME280;41337;51.400;-2.342;2022-08-21T12:44:51;101112.06;;;26.20;48.15
53889;BME280;41337;51.400;-2.342;2022-08-21T12:50:08;101114.63;;;26.22;46.28
53889;BME280;41337;51.400;-2.342;2022-08-21T12:55:14;101103.84;;;25.93;47.69
53889;BME280;41337;51.400;-2.342;2022-08-21T13:00:19;101105.50;;;26.26;47.91
53889;BME280;41337;51.400;-2.342;2022-08-21T13:05:31;101108.88;;;26.74;46.48
53889;BME280;41337;51.400;-2.342;2022-08-21T13:10:32;101104.78;;;26.68;44.93
53889;BME280;41337;51.400;-2.342;2022-08-21T13:15:35;101108.41;;;26.37;45.43
53889;BME280;41337;51.400;-2.342;2022-08-21T13:20:36;101102.78;;;26.11;47.18
53889;BME280;41337;51.400;-2.342;2022-08-21T13:25:38;101102.97;;;25.92;49.38
53889;BME280;41337;51.400;-2.342;2022-08-21T13:30:46;101098.44;;;25.78;49.00
53889;BME280;41337;51.400;-2.342;2022-08-21T13:36:03;101092.16;;;26.26;48.66
53889;BME280;41337;51.400;-2.342;2022-08-21T13:41:05;101079.78;;;26.39;45.82
53889;BME280;41337;51.400;-2.342;2022-08-21T13:46:12;101082.59;;;26.22;45.15
53889;BME280;41337;51.400;-2.342;2022-08-21T13:51:13;101081.47;;;26.26;47.45
53889;BME280;41337;51.400;-2.342;2022-08-21T13:56:41;101076.84;;;26.44;46.52
53889;BME280;41337;51.400;-2.342;2022-08-21T14:07:28;101071.47;;;27.17;44.15
53889;BME280;41337;51.400;-2.342;2022-08-21T14:12:49;101071.38;;;26.76;45.86
53889;BME280;41337;51.400;-2.342;2022-08-21T14:17:54;101075.66;;;26.64;46.34
53889;BME280;41337;51.400;-2.342;2022-08-21T14:23:06;101065.41;;;26.56;45.38
53889;BME280;41337;51.400;-2.342;2022-08-21T14:33:08;101061.56;;;26.46;46.53
53889;BME280;41337;51.400;-2.342;2022-08-21T14:38:16;101067.06;;;26.28;45.25
53889;BME280;41337;51.400;-2.342;2022-08-21T14:43:20;101066.53;;;26.07;47.18
53889;BME280;41337;51.400;-2.342;2022-08-21T14:48:24;101060.66;;;26.16;47.69
53889;BME280;41337;51.400;-2.342;2022-08-21T14:53:25;101053.84;;;26.41;48.69
53889;BME280;41337;51.400;-2.342;2022-08-21T14:58:25;101060.72;;;26.60;45.17
53889;BME280;41337;51.400;-2.342;2022-08-21T15:03:26;101059.88;;;26.14;47.54
53889;BME280;41337;51.400;-2.342;2022-08-21T15:08:27;101051.84;;;26.30;46.45
53889;BME280;41337;51.400;-2.342;2022-08-21T15:13:28;101054.28;;;26.64;46.64
53889;BME280;41337;51.400;-2.342;2022-08-21T15:18:29;101047.59;;;27.00;45.94
53889;BME280;41337;51.400;-2.342;2022-08-21T15:23:33;101049.50;;;26.98;44.62
53889;BME280;41337;51.400;-2.342;2022-08-21T15:28:35;101045.47;;;27.05;45.76
53889;BME280;41337;51.400;-2.342;2022-08-21T15:33:37;101049.31;;;27.01;42.89
53889;BME280;41337;51.400;-2.342;2022-08-21T15:38:37;101046.75;;;26.70;45.56
53889;BME280;41337;51.400;-2.342;2022-08-21T15:43:46;101051.09;;;26.57;46.12
53889;BME280;41337;51.400;-2.342;2022-08-21T15:48:48;101047.25;;;26.61;45.97
53889;BME280;41337;51.400;-2.342;2022-08-21T15:53:54;101053.66;;;26.59;46.54
53889;BME280;41337;51.400;-2.342;2022-08-21T15:58:59;101049.84;;;26.63;45.26
53889;BME280;41337;51.400;-2.342;2022-08-21T16:04:04;101055.88;;;26.22;47.79
53889;BME280;41337;51.400;-2.342;2022-08-21T16:09:05;101048.16;;;26.17;48.43
53889;BME280;41337;51.400;-2.342;2022-08-21T16:14:05;101042.72;;;26.04;49.43
53889;BME280;41337;51.400;-2.342;2022-08-21T16:19:06;101046.66;;;25.97;49.17
53889;BME280;41337;51.400;-2.342;2022-08-21T16:24:07;101050.31;;;25.80;48.79
53889;BME280;41337;51.400;-2.342;2022-08-21T16:29:08;101041.72;;;25.59;49.06
53889;BME280;41337;51.400;-2.342;2022-08-21T16:34:08;101045.66;;;25.52;51.55
53889;BME280;41337;51.400;-2.342;2022-08-21T16:39:14;101045.88;;;25.33;53.21
53889;BME280;41337;51.400;-2.342;2022-08-21T16:44:15;101046.16;;;25.10;55.38
53889;BME280;41337;51.400;-2.342;2022-08-21T16:49:16;101051.13;;;24.85;58.48
53889;BME280;41337;51.400;-2.342;2022-08-21T16:54:17;101063.84;;;24.45;63.31
53889;BME280;41337;51.400;-2.342;2022-08-21T16:59:18;101053.47;;;24.23;68.59
53889;BME280;41337;51.400;-2.342;2022-08-21T17:04:18;101064.69;;;23.93;77.38
53889;BME280;41337;51.400;-2.342;2022-08-21T17:09:20;101056.97;;;23.69;82.69
53889;BME280;41337;51.400;-2.342;2022-08-21T17:14:21;101069.06;;;23.38;89.59
53889;BME280;41337;51.400;-2.342;2022-08-21T17:19:26;101068.78;;;23.25;92.59
53889;BME280;41337;51.400;-2.342;2022-08-21T17:24:27;101068.16;;;23.00;94.70
53889;BME280;41337;51.400;-2.342;2022-08-21T17:29:30;101067.09;;;23.04;95.11
53889;BME280;41337;51.400;-2.342;2022-08-21T17:34:38;101057.25;;;23.06;96.65
53889;BME280;41337;51.400;-2.342;2022-08-21T17:39:39;101061.19;;;22.97;98.02
53889;BME280;41337;51.400;-2.342;2022-08-21T17:44:41;101062.38;;;22.90;99.35
53889;BME280;41337;51.400;-2.342;2022-08-21T17:49:51;101052.09;;;22.63;100.00
53889;BME280;41337;51.400;-2.342;2022-08-21T17:54:53;101046.50;;;22.69;99.72
53889;BME280;41337;51.400;-2.342;2022-08-21T17:59:56;101054.09;;;22.58;100.00
53889;BME280;41337;51.400;-2.342;2022-08-21T18:04:57;101056.13;;;22.31;100.00
53889;BME280;41337;51.400;-2.342;2022-08-21T18:09:58;101062.63;;;22.24;100.00
53889;BME280;41337;51.400;-2.342;2022-08-21T18:15:00;101068.25;;;22.16;100.00
53889;BME280;41337;51.400;-2.342;2022-08-21T18:20:01;101073.94;;;22.07;100.00
53889;BME280;41337;51.400;-2.342;2022-08-21T18:25:08;101075.50;;;21.90;100.00
53889;BME280;41337;51.400;-2.342;2022-08-21T18:30:09;101076.13;;;21.75;100.00
53889;BME280;41337;51.400;-2.342;2022-08-21T18:35:09;101083.81;;;21.59;100.00
53889;BME280;41337;51.400;-2.342;2022-08-21T18:40:11;101096.97;;;21.62;100.00
53889;BME280;41337;51.400;-2.342;2022-08-21T18:45:13;101097.41;;;21.73;100.00
53889;BME280;41337;51.400;-2.342;2022-08-21T18:50:15;101091.41;;;21.68;100.00
53889;BME280;41337;51.400;-2.342;2022-08-21T18:55:20;101099.56;;;21.63;100.00
53889;BME280;41337;51.400;-2.342;2022-08-21T19:00:26;101102.66;;;21.51;100.00
53889;BME280;41337;51.400;-2.342;2022-08-21T19:05:28;101096.50;;;21.51;100.00
53889;BME280;41337;51.400;-2.342;2022-08-21T19:10:29;101104.56;;;21.48;100.00
53889;BME280;41337;51.400;-2.342;2022-08-21T19:15:30;101104.22;;;21.33;100.00
53889;BME280;41337;51.400;-2.342;2022-08-21T19:20:33;101113.91;;;21.34;100.00
53889;BME280;41337;51.400;-2.342;2022-08-21T19:25:40;101119.38;;;21.30;100.00
53889;BME280;41337;51.400;-2.342;2022-08-21T19:30:42;101133.50;;;21.30;100.00
53889;BME280;41337;51.400;-2.342;2022-08-21T19:35:43;101129.22;;;21.26;100.00
53889;BME280;41337;51.400;-2.342;2022-08-21T19:40:44;101129.84;;;21.09;100.00
53889;BME280;41337;51.400;-2.342;2022-08-21T19:45:45;101141.25;;;21.11;100.00
53889;BME280;41337;51.400;-2.342;2022-08-21T19:50:46;101148.47;;;21.07;100.00
53889;BME280;41337;51.400;-2.342;2022-08-21T19:55:47;101151.09;;;21.07;100.00
53889;BME280;41337;51.400;-2.342;2022-08-21T20:00:54;101137.13;;;21.04;100.00
53889;BME280;41337;51.400;-2.342;2022-08-21T20:05:55;101127.44;;;20.78;100.00
53889;BME280;41337;51.400;-2.342;2022-08-21T20:10:56;101128.63;;;20.42;100.00
53889;BME280;41337;51.400;-2.342;2022-08-21T20:16:04;101130.81;;;20.29;100.00
53889;BME280;41337;51.400;-2.342;2022-08-21T20:21:05;101120.53;;;20.20;100.00
53889;BME280;41337;51.400;-2.342;2022-08-21T20:26:06;101128.50;;;20.18;100.00
53889;BME280;41337;51.400;-2.342;2022-08-21T20:31:07;101133.34;;;20.06;100.00
53889;BME280;41337;51.400;-2.342;2022-08-21T20:36:08;101136.28;;;19.96;100.00
53889;BME280;41337;51.400;-2.342;2022-08-21T20:41:09;101139.88;;;19.94;100.00
53889;BME280;41337;51.400;-2.342;2022-08-21T20:46:15;101137.78;;;19.77;100.00
53889;BME280;41337;51.400;-2.342;2022-08-21T20:51:28;101134.47;;;19.69;100.00
53889;BME280;41337;51.400;-2.342;2022-08-21T21:01:37;101142.34;;;19.42;100.00
53889;BME280;41337;51.400;-2.342;2022-08-21T21:06:38;101138.28;;;19.29;100.00
53889;BME280;41337;51.400;-2.342;2022-08-21T21:11:48;101123.47;;;19.24;100.00
53889;BME280;41337;51.400;-2.342;2022-08-21T21:16:55;101130.72;;;19.16;100.00
53889;BME280;41337;51.400;-2.342;2022-08-21T21:22:06;101120.53;;;19.02;100.00
53889;BME280;41337;51.400;-2.342;2022-08-21T21:27:16;101105.97;;;18.89;100.00
53889;BME280;41337;51.400;-2.342;2022-08-21T21:32:23;101098.09;;;18.87;100.00
53889;BME280;41337;51.400;-2.342;2022-08-21T21:37:26;101092.94;;;18.81;100.00
53889;BME280;41337;51.400;-2.342;2022-08-21T21:42:38;101090.59;;;18.70;100.00
53889;BME280;41337;51.400;-2.342;2022-08-21T21:52:58;101077.84;;;18.53;100.00
53889;BME280;41337;51.400;-2.342;2022-08-21T22:18:47;101072.38;;;17.92;100.00
53889;BME280;41337;51.400;-2.342;2022-08-21T22:23:53;101080.34;;;17.89;100.00
53889;BME280;41337;51.400;-2.342;2022-08-21T22:28:57;101092.75;;;17.84;100.00
53889;BME280;41337;51.400;-2.342;2022-08-21T22:39:29;101080.72;;;17.72;100.00
53889;BME280;41337;51.400;-2.342;2022-08-21T22:44:34;101079.13;;;17.64;100.00
53889;BME280;41337;51.400;-2.342;2022-08-21T22:49:46;101076.88;;;17.48;100.00
53889;BME280;41337;51.400;-2.342;2022-08-21T22:54:49;101080.66;;;17.36;100.00
53889;BME280;41337;51.400;-2.342;2022-08-21T23:05:30;101073.06;;;17.21;100.00
53889;BME280;41337;51.400;-2.342;2022-08-21T23:10:33;101062.69;;;17.15;100.00
53889;BME280;41337;51.400;-2.342;2022-08-21T23:36:24;101085.63;;;16.61;100.00
53889;BME280;41337;51.400;-2.342;2022-08-21T23:52:33;101079.00;;;16.39;100.00
